Laguna Naick Neck, Argentina
Current Conditions -  °F | °C
As of 12:00 PM on Wednesday 22 Oct 2014 (Local Time) from SGAS Reporting Station
Clear Clear  
Wind Chill: 90°   Ceiling: Unl
Heat Index: 91°   Visibility: 6mi
Dew Point: 64°   Wind: 10mph
Humidity: 43%   Direction: 30°NNE
Pressure: 30"   Gusts: NA
Location:  25.26°S, 58.12°W
Report Text: SGAS 221500Z 03009KT CAVOK 32/18 Q1016
Loading
Personal Weather Stations






























Interactive Weather Map
Tropical Storm Tracking
New forecast layout! Learn more

10-Day Weather Forecast

Advertisements
Track Severe Weather on mobile